Skip Navigation Links
NOAA logo - Click to go to the NOAA homepage
NOAA's National Weather Service
Alaska Aviation Weather Unit
  NWS logo - Click to go to the NWS homepage
Left Navbar Graphic     15 AKDT = 23 GMT

   
NOAA is celebrating 200 years of science, service, and stewardship. Visit the NOAA 200th celebration Web site to learn more.
USA.gov is the U.S. Government's official Web portal to all Federal, state and local government Web resources and services.
Facebook
NWS on Facebook

Important Change Regarding the AAWU Web Presence

 

Over the last several months, the AAWU has been working to navigate its webpages to a nationally supported server. Security, as well as other needs, have necessitated the change.  We have been given an extension for the site changeover while we diligently work at addressing feedback received. As of July 14, 2017, aawu.arh.noaa.gov will be discontinued. The new AAWU web address is weather.gov/aawu. It is now live and will run in-parallel with the old site until it is discontinued on July 14, 2017. Please continue to send any feedback or questions regarding the new webpages to nws.ar.aawu.webauthors@noaa.gov.  Thank you for your patience during this time of transition.
AAWU Home :: Display TAF Add Bookmark
METAR PAAK 191756Z AUTO 10020G26KT 2 1/2SM -RA BR OVC010 04/03 A2949 RMK
     AO2 PK WND 10027/1733 CIG 007V013 PRESFR SLP987 P0003 60022
     T00440033 10061 20044 56048=

SPECI PAAK 191831Z AUTO 10018G27KT 3SM -RA BR OVC010 05/04 A2946 RMK AO2
     PK WND 10028/1807 CIG 008V015=

SPECI PAAK 191851Z AUTO 11024G32KT 1 3/4SM -RA BR OVC010 06/04 A2945 RMK
     AO2 PK WND 12032/1849=

METAR PAAK 191856Z AUTO 11025G32KT 1 1/2SM -RA BR OVC010 06/04 A2944 RMK
     AO2 PK WND 12032/1849 SLP970 T00560039=

SPECI PAAK 191917Z AUTO 11023G29KT 1 1/4SM -RA BR OVC008 06/04 A2942 RMK
     AO2 PK WND 11029/1916 CIG 007V010 P0000=

METAR PAAK 191956Z AUTO 12021G31KT 1 1/4SM -RA BR OVC006 06/05 A2939 RMK
     AO2 PK WND 12031/1952 SLP954 P0000 T00560050=

SPECI PAAK 192033Z AUTO 10022G28KT 3SM -RA BR BKN006 OVC012 07/06 A2934
     RMK AO2 PK WND 12030/2016 CIG 004V009 PRESFR P0001=

SPECI PAAK 192048Z AUTO 19007KT 170V230 6SM BR SCT006 OVC014 08/06 A2934
     RMK AO2 PK WND 12030/2016 RAE38 P0001=

SPECI PAAK 192104Z AUTO 27019G25KT 9SM SCT014 BKN019 OVC043 08/04 A2931
     RMK AO2 WSHFT 2050=

SPECI PAAK 192111Z AUTO 27014G25KT 9SM FEW014 BKN043 OVC050 08/03 A2932
     RMK AO2 WSHFT 2050=

METAR PAAK 192156Z AUTO 25011G17KT 8SM CLR 09/02 A2931 RMK AO2 WSHFT
     2050 SLP927 T00890022=

METAR PAAK 192256Z AUTO 22009G14KT 8SM SCT036 BKN047 OVC055 09/03
 A2929 RMK AO2 SLP921 T00940033=


NOAA's National Weather Service
Alaska Aviation Weather Unit
6930 Sand Lake Road
Anchorage, AK 99502-1845
Disclaimer
Credits
Glossary
Privacy Policy
About Us
Career Opportunities
Contact AAWU Internet Services Site last modified: April, 17th 2012